createdAt,value
2023-04-09T00:00:16.846Z,100028.13
2023-04-09T00:02:43.965Z,100038.22
2023-04-09T00:05:11.284Z,100029.53
2023-04-09T00:07:38.378Z,100029.69
2023-04-09T00:10:06.311Z,100025.56
2023-04-09T00:12:33.268Z,100028.03
2023-04-09T00:15:00.264Z,100035.44
2023-04-09T00:17:27.251Z,100030.28
2023-04-09T00:19:54.443Z,100030.72
2023-04-09T00:22:21.517Z,100029.91
2023-04-09T00:24:48.475Z,100037.41
2023-04-09T00:27:15.599Z,100031.41
2023-04-09T00:29:42.735Z,100033.06
2023-04-09T00:32:10.525Z,100036.59
2023-04-09T00:34:38.948Z,100034.25
2023-04-09T00:37:07.009Z,100032.59
2023-04-09T00:39:34.094Z,100035.69
2023-04-09T00:42:04.869Z,100024.88
2023-04-09T00:44:31.818Z,100033.34
2023-04-09T00:47:00.842Z,100025.84
2023-04-09T00:49:27.821Z,100029.59
2023-04-09T00:51:54.988Z,100034.78
2023-04-09T00:54:22.172Z,100032.06
2023-04-09T00:56:49.446Z,100027.50
2023-04-09T00:59:16.914Z,100030.19
2023-04-09T01:01:43.880Z,100024.66
2023-04-09T01:04:11.252Z,100026.91
2023-04-09T01:07:11.153Z,100027.72
2023-04-09T01:09:43.677Z,100030.66
2023-04-09T01:12:36.930Z,100030.41
2023-04-09T01:15:08.831Z,100028.41
2023-04-09T01:17:49.134Z,100031.69
2023-04-09T01:20:22.989Z,100025.25
2023-04-09T01:22:50.290Z,100027.72
2023-04-09T01:25:17.978Z,100027.13
2023-04-09T01:28:17.835Z,100030.88
2023-04-09T01:30:50.040Z,100032.75
2023-04-09T01:33:19.167Z,100042.50
2023-04-09T01:35:48.895Z,100036.03
2023-04-09T01:38:19.968Z,100031.69
2023-04-09T01:40:47.827Z,100029.59
2023-04-09T01:43:15.857Z,100030.19
2023-04-09T01:45:45.660Z,100037.28
2023-04-09T01:48:14.316Z,100040.34
2023-04-09T01:50:41.845Z,100036.59
2023-04-09T01:53:09.266Z,100040.47
2023-04-09T01:55:36.183Z,100037.31
2023-04-09T01:58:03.686Z,100029.91
2023-04-09T02:00:40.289Z,100046.25
2023-04-09T02:03:11.547Z,100033.34
2023-04-09T02:05:44.680Z,100049.31
2023-04-09T02:08:19.557Z,100034.53
2023-04-09T02:10:55.625Z,100038.88
2023-04-09T02:13:24.674Z,100028.06
2023-04-09T02:15:56.654Z,100028.06
2023-04-09T02:18:29.030Z,100026.06
2023-04-09T02:20:57.703Z,100034.91
2023-04-09T02:23:25.641Z,100033.25
2023-04-09T02:25:54.022Z,100034.06
2023-04-09T02:28:21.178Z,100032.44
2023-04-09T02:30:48.227Z,100033.63
2023-04-09T02:33:15.409Z,100037.13
2023-04-09T02:35:42.455Z,100036.31
2023-04-09T02:38:14.664Z,100034.66
2023-04-09T02:40:41.699Z,100032.78
2023-04-09T02:43:09.954Z,100034.66
2023-04-09T02:45:37.406Z,100038.41
2023-04-09T02:48:04.528Z,100036.53
2023-04-09T02:50:35.062Z,100033.03
2023-04-09T02:53:03.032Z,100027.84
2023-04-09T02:55:30.466Z,100039.47
2023-04-09T02:57:57.438Z,100038.41
2023-04-09T03:00:24.614Z,100032.44
2023-04-09T03:02:52.297Z,100037.09
2023-04-09T03:05:19.362Z,100032.88
2023-04-09T03:07:47.463Z,100029.13
2023-04-09T03:10:14.489Z,100039.94
2023-04-09T03:12:41.596Z,100040.16
2023-04-09T03:15:09.258Z,100038.75
2023-04-09T03:17:36.144Z,100043.91
2023-04-09T03:20:03.515Z,100037.69
2023-04-09T03:22:39.975Z,100049.31
2023-04-09T03:25:27.450Z,100042.84
2023-04-09T03:27:55.598Z,100037.22
2023-04-09T03:30:42.871Z,100036.19
2023-04-09T03:33:10.497Z,100041.34
2023-04-09T03:35:47.783Z,100042.75
2023-04-09T03:38:16.239Z,100039.00
2023-04-09T03:40:43.248Z,100044.19
2023-04-09T03:43:10.359Z,100043.59
2023-04-09T03:45:39.670Z,100041.72
2023-04-09T03:48:17.294Z,100043.28
2023-04-09T03:50:44.693Z,100042.00
2023-04-09T03:53:14.989Z,100041.56
2023-04-09T03:55:42.596Z,100040.03
2023-04-09T03:58:16.828Z,100043.09
2023-04-09T04:00:43.852Z,100042.41
2023-04-09T04:03:26.835Z,100052.69
2023-04-09T04:06:07.353Z,100048.13
2023-04-09T04:08:51.335Z,100041.44
2023-04-09T04:11:21.465Z,100049.00
2023-04-09T04:13:52.232Z,100042.69
2023-04-09T04:16:19.347Z,100044.00
2023-04-09T04:18:46.356Z,100041.41
2023-04-09T04:21:14.808Z,100037.53
2023-04-09T04:23:45.327Z,100042.88
2023-04-09T04:26:22.787Z,100038.41
2023-04-09T04:28:50.215Z,100036.88
2023-04-09T04:31:31.469Z,100032.03
2023-04-09T04:33:59.882Z,100035.34
2023-04-09T04:36:27.313Z,100027.22
2023-04-09T04:38:54.471Z,100037.91
2023-04-09T04:41:30.873Z,100034.88
2023-04-09T04:44:08.415Z,100039.69
2023-04-09T04:46:35.801Z,100019.09
2023-04-09T04:49:02.961Z,100032.97
2023-04-09T04:51:32.406Z,100031.53
2023-04-09T04:54:07.051Z,100028.19
2023-04-09T04:56:34.343Z,100034.31
2023-04-09T04:59:07.128Z,100032.53
2023-04-09T05:01:46.680Z,100029.56
2023-04-09T05:04:14.001Z,100028.28
2023-04-09T05:06:41.217Z,100036.50
2023-04-09T05:09:12.845Z,100028.47
2023-04-09T05:11:48.337Z,100039.84
2023-04-09T05:14:21.570Z,100034.84
2023-04-09T05:16:49.159Z,100032.69
2023-04-09T05:19:18.148Z,100031.91
2023-04-09T05:21:47.225Z,100034.06
2023-04-09T05:24:20.561Z,100038.66
2023-04-09T05:26:47.495Z,100040.75
2023-04-09T05:29:14.648Z,100030.78
2023-04-09T05:31:43.223Z,100031.44
2023-04-09T05:34:24.194Z,100037.56
2023-04-09T05:36:54.601Z,100039.63
2023-04-09T05:39:23.405Z,100038.63
2023-04-09T05:41:52.625Z,100049.38
2023-04-09T05:44:31.449Z,100049.59
2023-04-09T05:47:12.508Z,100050.28
2023-04-09T05:49:48.975Z,100044.13
2023-04-09T05:52:17.658Z,100052.59
2023-04-09T05:54:44.523Z,100052.03
2023-04-09T05:57:15.104Z,100067.41
2023-04-09T05:59:45.836Z,100062.41
2023-04-09T06:02:12.804Z,100060.72
2023-04-09T06:04:40.026Z,100060.66
2023-04-09T06:07:07.463Z,100068.47
2023-04-09T06:09:36.098Z,100053.25
2023-04-09T06:12:03.000Z,100055.72
2023-04-09T06:14:32.938Z,100054.91
2023-04-09T06:17:00.393Z,100057.03
2023-04-09T06:19:27.725Z,100063.03
2023-04-09T06:21:54.798Z,100061.22
2023-04-09T06:24:21.788Z,100060.78
2023-04-09T06:26:49.130Z,100063.03
2023-04-09T06:29:16.193Z,100059.66
2023-04-09T06:31:43.345Z,100063.63
2023-04-09T06:34:11.221Z,100061.97
2023-04-09T06:36:40.493Z,100069.69
2023-04-09T06:39:07.621Z,100075.56
2023-04-09T06:41:34.559Z,100075.13
2023-04-09T06:44:09.808Z,100065.66
2023-04-09T06:46:36.839Z,100074.50
2023-04-09T06:49:03.865Z,100074.59
2023-04-09T06:51:30.787Z,100071.44
2023-04-09T06:53:57.808Z,100075.59
2023-04-09T06:56:25.092Z,100074.81
2023-04-09T06:58:52.256Z,100075.16
2023-04-09T07:01:20.284Z,100072.41
2023-04-09T07:03:47.373Z,100085.50
2023-04-09T07:06:14.358Z,100078.44
2023-04-09T07:08:41.359Z,100081.72
2023-04-09T07:11:08.695Z,100079.91
2023-04-09T07:13:36.007Z,100083.28
2023-04-09T07:16:03.075Z,100086.38
2023-04-09T07:18:31.177Z,100088.09
2023-04-09T07:20:58.273Z,100090.84
2023-04-09T07:23:26.163Z,100088.75
2023-04-09T07:25:53.531Z,100092.00
2023-04-09T07:28:20.652Z,100091.47
2023-04-09T07:30:47.725Z,100088.78
2023-04-09T07:33:14.672Z,100092.84
2023-04-09T07:35:42.322Z,100091.47
2023-04-09T07:38:09.333Z,100094.50
2023-04-09T07:40:36.865Z,100090.69
2023-04-09T07:43:04.840Z,100092.88
2023-04-09T07:45:31.800Z,100089.03
2023-04-09T07:47:58.962Z,100090.41
2023-04-09T07:50:26.251Z,100095.81
2023-04-09T07:52:53.263Z,100085.66
2023-04-09T07:55:20.553Z,100089.16
2023-04-09T07:57:48.642Z,100086.44
2023-04-09T08:00:16.343Z,100087.25
2023-04-09T08:02:44.100Z,100087.78
2023-04-09T08:05:11.848Z,100097.38
2023-04-09T08:07:39.021Z,100091.72
2023-04-09T08:10:07.003Z,100091.19
2023-04-09T08:12:34.570Z,100089.03
2023-04-09T08:15:03.742Z,100088.78
2023-04-09T08:17:31.230Z,100076.53
2023-04-09T08:19:58.283Z,100076.56
2023-04-09T08:22:25.416Z,100080.13
2023-04-09T08:24:53.600Z,100078.25
2023-04-09T08:27:21.531Z,100074.16
2023-04-09T08:29:48.498Z,100070.66
2023-04-09T08:32:16.060Z,100069.88
2023-04-09T08:34:43.221Z,100072.06
2023-04-09T08:37:10.247Z,100071.50
2023-04-09T08:39:37.245Z,100072.06
2023-04-09T08:42:07.316Z,100072.06
2023-04-09T08:44:34.408Z,100069.63
2023-04-09T08:47:02.740Z,100065.56
2023-04-09T08:49:29.755Z,100061.19
2023-04-09T08:51:57.121Z,100071.03
2023-04-09T08:54:26.876Z,100061.47
2023-04-09T08:56:53.919Z,100067.72
2023-04-09T08:59:20.977Z,100059.78
2023-04-09T09:01:52.942Z,100066.09
2023-04-09T09:04:20.573Z,100063.88
2023-04-09T09:06:47.717Z,100054.06
2023-04-09T09:09:16.387Z,100072.34
2023-04-09T09:11:48.675Z,100066.06
2023-04-09T09:14:20.037Z,100066.09
2023-04-09T09:16:56.403Z,100064.22
2023-04-09T09:19:26.294Z,100055.75
2023-04-09T09:21:57.536Z,100068.03
2023-04-09T09:24:24.791Z,100058.47
2023-04-09T09:26:52.457Z,100037.72
2023-04-09T09:29:20.228Z,100038.00
2023-04-09T09:31:56.778Z,100044.03
2023-04-09T09:34:25.673Z,100041.00
2023-04-09T09:36:52.948Z,100037.19
2023-04-09T09:39:20.223Z,100040.19
2023-04-09T09:41:48.910Z,100044.53
2023-04-09T09:44:33.136Z,100036.88
2023-04-09T09:47:03.724Z,100042.03
2023-04-09T09:49:30.794Z,100043.09
2023-04-09T09:52:00.780Z,100037.63
2023-04-09T09:54:36.443Z,100039.22
2023-04-09T09:57:07.795Z,100032.69
2023-04-09T09:59:39.033Z,100032.06
2023-04-09T10:02:08.853Z,100038.56
2023-04-09T10:04:36.811Z,100029.19
2023-04-09T10:07:08.385Z,100035.47
2023-04-09T10:09:46.811Z,100030.72
2023-04-09T10:12:14.219Z,100025.25
2023-04-09T10:14:42.844Z,100034.84
2023-04-09T10:17:10.131Z,100021.94
2023-04-09T10:19:54.908Z,100020.22
2023-04-09T10:22:27.059Z,100022.59
2023-04-09T10:24:55.940Z,100026.56
2023-04-09T10:27:22.921Z,100024.00
2023-04-09T10:29:52.234Z,100022.50
2023-04-09T10:32:26.677Z,100025.97
2023-04-09T10:34:58.573Z,100015.66
2023-04-09T10:37:27.582Z,100034.44
2023-04-09T10:39:54.846Z,100023.38
2023-04-09T10:42:33.042Z,100023.72
2023-04-09T10:45:16.913Z,100016.63
2023-04-09T10:47:44.362Z,100016.63
2023-04-09T10:50:21.808Z,100014.47
2023-04-09T10:52:59.773Z,100013.09
2023-04-09T10:55:38.448Z,100010.00
2023-04-09T10:58:12.770Z,100003.75
2023-04-09T11:00:43.477Z,100004.06
2023-04-09T11:03:30.697Z,100007.97
2023-04-09T11:06:11.264Z,100001.22
2023-04-09T11:08:38.969Z,100010.16
2023-04-09T11:11:06.294Z,100005.16
2023-04-09T11:13:34.503Z,100004.72
2023-04-09T11:16:04.245Z,100000.13
2023-04-09T11:18:34.024Z,100009.22
2023-04-09T11:21:06.069Z,100006.22
2023-04-09T11:23:33.943Z,100013.84
2023-04-09T11:26:02.152Z,100007.41
2023-04-09T11:28:29.151Z,100004.00
2023-04-09T11:30:56.197Z,100011.25
2023-04-09T11:33:23.421Z,100008.34
2023-04-09T11:35:51.306Z,100000.53
2023-04-09T11:38:18.276Z,100008.50
2023-04-09T11:40:48.925Z,99998.41
2023-04-09T11:43:17.092Z,99998.69
2023-04-09T11:45:44.964Z,100000.56
2023-04-09T11:48:13.122Z,99996.44
2023-04-09T11:50:40.770Z,99993.06
2023-04-09T11:53:20.941Z,99999.53
2023-04-09T11:55:51.645Z,99993.38
2023-04-09T11:58:22.299Z,100000.91
2023-04-09T12:00:49.239Z,99995.03
2023-04-09T12:03:16.855Z,99984.78
2023-04-09T12:05:50.926Z,100012.28
2023-04-09T12:08:23.944Z,99986.91
2023-04-09T12:10:53.674Z,99987.50
2023-04-09T12:13:21.709Z,99985.00
2023-04-09T12:15:50.201Z,99983.03
2023-04-09T12:18:17.740Z,99982.19
2023-04-09T12:20:47.668Z,99973.66
2023-04-09T12:23:16.055Z,99975.38
2023-04-09T12:25:45.380Z,99970.66
2023-04-09T12:28:15.842Z,99978.13
2023-04-09T12:30:43.308Z,99972.81
2023-04-09T12:33:11.387Z,99963.66
2023-04-09T12:35:38.916Z,99970.38
2023-04-09T12:38:06.274Z,99972.16
2023-04-09T12:40:33.603Z,99972.44
2023-04-09T12:43:00.480Z,99975.16
2023-04-09T12:45:28.600Z,99974.00
2023-04-09T12:47:55.631Z,99972.22
2023-04-09T12:50:22.719Z,99969.38
2023-04-09T12:52:50.507Z,99970.31
2023-04-09T12:55:17.645Z,99964.97
2023-04-09T12:57:47.257Z,99969.16
2023-04-09T13:00:15.094Z,99974.97
2023-04-09T13:02:42.454Z,99970.09
2023-04-09T13:05:09.957Z,99973.69
2023-04-09T13:07:38.041Z,99968.31
2023-04-09T13:10:05.546Z,99971.88
2023-04-09T13:12:32.699Z,99974.91
2023-04-09T13:14:59.646Z,99978.22
2023-04-09T13:17:26.719Z,99985.31
2023-04-09T13:19:53.896Z,99989.16
2023-04-09T13:22:21.014Z,99980.09
2023-04-09T13:24:47.960Z,99976.84
2023-04-09T13:27:16.570Z,99982.25
2023-04-09T13:29:43.686Z,99981.72
2023-04-09T13:32:11.309Z,99975.44
2023-04-09T13:34:39.162Z,99983.06
2023-04-09T13:37:06.300Z,99978.69
2023-04-09T13:39:33.378Z,99989.88
2023-04-09T13:42:03.629Z,99990.38
2023-04-09T13:44:35.391Z,99993.38
2023-04-09T13:47:02.577Z,99985.47
2023-04-09T13:49:30.962Z,99986.81
2023-04-09T13:51:58.339Z,99991.44
2023-04-09T13:54:25.392Z,99981.56
2023-04-09T13:56:52.354Z,99989.16
2023-04-09T13:59:34.052Z,99983.44
2023-04-09T14:02:19.730Z,99972.75
2023-04-09T14:04:54.452Z,99996.97
2023-04-09T14:07:46.153Z,99975.09
2023-04-09T14:10:13.838Z,99980.28
2023-04-09T14:13:05.298Z,99976.19
2023-04-09T14:16:54.220Z,99969.94
2023-04-09T14:21:20.197Z,99956.25
2023-04-09T14:24:55.571Z,99957.47
2023-04-09T14:28:11.207Z,99960.19
2023-04-09T14:31:20.462Z,99969.78
2023-04-09T15:54:04.323Z,99943.81
2023-04-09T15:57:23.416Z,99927.16
2023-04-09T16:06:00.120Z,99932.31
2023-04-09T16:30:00.226Z,99931.53
2023-04-09T17:20:14.956Z,99960.41
2023-04-09T17:39:07.308Z,99955.31
2023-04-09T18:03:32.343Z,99957.06
2023-04-09T18:21:01.128Z,99978.69
2023-04-09T18:28:30.765Z,99936.81
2023-04-09T18:32:22.790Z,99970.59
2023-04-09T18:35:29.107Z,99970.25
2023-04-09T18:43:15.148Z,99965.81
2023-04-09T18:46:43.691Z,99919.06
2023-04-09T18:49:25.349Z,99944.28
2023-04-09T18:52:13.685Z,99952.91
2023-04-09T18:54:57.028Z,99946.84
2023-04-09T18:58:16.214Z,99955.09
2023-04-09T19:00:43.807Z,99949.47
2023-04-09T19:03:23.660Z,99966.16
2023-04-09T19:06:15.583Z,99952.03
2023-04-09T19:09:04.753Z,99951.47
2023-04-09T19:11:39.897Z,99952.53
2023-04-09T19:14:11.719Z,99955.50
2023-04-09T19:16:48.970Z,99938.09
2023-04-09T19:19:18.000Z,99938.81
2023-04-09T19:21:53.906Z,99942.91
2023-04-09T19:24:23.412Z,99945.06
2023-04-09T19:26:53.736Z,99945.78
2023-04-09T19:29:26.744Z,99950.88
2023-04-09T19:31:56.195Z,99946.16
2023-04-09T19:34:24.677Z,99944.75
2023-04-09T19:36:54.265Z,99948.50
2023-04-09T19:39:24.007Z,99945.47
2023-04-09T19:41:54.030Z,99937.84
2023-04-09T19:44:24.237Z,99946.19
2023-04-09T19:47:15.508Z,99942.09
2023-04-09T19:49:45.745Z,99943.41
2023-04-09T19:52:14.331Z,99953.16
2023-04-09T19:54:44.912Z,99950.47
2023-04-09T19:57:16.835Z,99951.53
2023-04-09T19:59:50.026Z,99954.47
2023-04-09T20:02:21.267Z,99954.13
2023-04-09T20:04:52.781Z,99954.38
2023-04-09T20:07:31.681Z,99957.56
2023-04-09T20:10:09.131Z,99952.59
2023-04-09T20:12:44.715Z,99955.53
2023-04-09T20:15:15.716Z,99952.75
2023-04-09T20:17:43.515Z,99948.88
2023-04-09T20:20:12.068Z,99955.81
2023-04-09T20:22:43.385Z,99949.84
2023-04-09T20:25:16.652Z,99951.13
2023-04-09T20:27:50.039Z,99949.16
2023-04-09T20:30:20.155Z,99944.56
2023-04-09T20:32:49.946Z,99946.44
2023-04-09T20:35:23.213Z,99953.16
2023-04-09T20:38:01.578Z,99945.03
2023-04-09T20:40:38.063Z,99951.47
2023-04-09T20:43:10.587Z,99950.66
2023-04-09T20:45:40.361Z,99939.00
2023-04-09T20:48:12.776Z,99950.06
2023-04-09T20:50:42.644Z,99951.94
2023-04-09T20:53:10.397Z,99947.03
2023-04-09T20:55:46.064Z,99944.91
2023-04-09T20:58:18.065Z,99949.50
2023-04-09T21:00:59.215Z,99955.13
2023-04-09T21:03:39.186Z,99957.25
2023-04-09T21:06:11.222Z,99954.78
2023-04-09T21:08:49.758Z,99956.44
2023-04-09T21:11:24.915Z,99964.53
2023-04-09T21:13:57.667Z,99940.00
2023-04-09T21:16:33.192Z,99959.72
2023-04-09T21:19:07.240Z,99954.31
2023-04-09T21:21:35.394Z,99961.38
2023-04-09T21:24:05.155Z,99960.88
2023-04-09T21:26:49.514Z,99955.03
2023-04-09T21:29:28.837Z,99954.31
2023-04-09T21:32:08.450Z,99952.66
2023-04-09T22:05:45.257Z,99954.72
2023-04-09T22:09:27.455Z,99961.53
2023-04-09T22:15:01.825Z,99967.28
2023-04-09T23:11:29.791Z,99954.72
